createdAt,value
2023-01-23T00:04:55.185Z,55.02
2023-01-23T00:09:58.273Z,54.79
2023-01-23T00:15:02.488Z,54.79
2023-01-23T00:20:07.046Z,54.81
2023-01-23T00:25:11.381Z,55.02
2023-01-23T00:30:15.394Z,55.03
2023-01-23T00:35:18.843Z,54.92
2023-01-23T00:40:23.835Z,55.35
2023-01-23T00:45:26.730Z,55.17
2023-01-23T00:50:29.778Z,55.56
2023-01-23T00:55:32.809Z,55.57
2023-01-23T01:00:45.266Z,55.61
2023-01-23T01:06:02.618Z,55.79
2023-01-23T01:11:06.615Z,55.25
2023-01-23T01:16:18.319Z,55.73
2023-01-23T01:21:32.101Z,55.45
2023-01-23T01:26:36.095Z,55.66
2023-01-23T01:31:39.283Z,55.33
2023-01-23T01:36:42.519Z,55.39
2023-01-23T01:41:45.546Z,55.81
2023-01-23T01:46:49.513Z,55.19
2023-01-23T01:52:07.638Z,55.53
2023-01-23T01:57:25.547Z,55.22
2023-01-23T02:02:51.587Z,55.62
2023-01-23T02:08:06.267Z,55.16
2023-01-23T02:13:37.187Z,55.20
2023-01-23T02:18:44.302Z,55.08
2023-01-23T02:23:55.091Z,55.13
2023-01-23T02:29:00.712Z,55.28
2023-01-23T02:34:13.888Z,55.29
2023-01-23T02:39:19.335Z,55.11
2023-01-23T02:44:31.369Z,55.18
2023-01-23T02:49:38.746Z,55.55
2023-01-23T02:54:42.951Z,55.37
2023-01-23T02:59:46.742Z,55.27
2023-01-23T03:04:50.284Z,55.23
2023-01-23T03:09:53.284Z,55.17
2023-01-23T03:14:56.569Z,55.14
2023-01-23T03:19:59.820Z,54.89
2023-01-23T03:25:12.165Z,54.66
2023-01-23T03:30:28.515Z,55.07
2023-01-23T03:35:31.775Z,54.88
2023-01-23T03:40:36.107Z,54.64
2023-01-23T03:45:41.585Z,55.08
2023-01-23T03:50:44.964Z,54.70
2023-01-23T03:55:49.581Z,55.01
2023-01-23T04:00:53.458Z,54.81
2023-01-23T04:05:58.798Z,54.95
2023-01-23T04:11:05.257Z,54.99
2023-01-23T04:16:09.065Z,55.14
2023-01-23T04:21:13.740Z,55.08
2023-01-23T04:26:18.388Z,55.14
2023-01-23T04:31:30.926Z,55.03
2023-01-23T04:36:50.097Z,54.77
2023-01-23T04:41:55.322Z,54.82
2023-01-23T04:47:21.541Z,54.83
2023-01-23T04:52:25.897Z,55.10
2023-01-23T04:57:32.991Z,54.81
2023-01-23T05:02:59.279Z,55.06
2023-01-23T05:08:03.641Z,55.23
2023-01-23T05:13:08.736Z,54.81
2023-01-23T05:18:21.762Z,55.14
2023-01-23T05:23:48.916Z,54.76
2023-01-23T05:28:54.340Z,54.76
2023-01-23T05:33:57.721Z,55.07
2023-01-23T05:39:01.278Z,55.06
2023-01-23T05:44:06.343Z,55.08
2023-01-23T05:49:23.353Z,55.02
2023-01-23T05:54:27.876Z,55.06
2023-01-23T05:59:44.346Z,54.72
2023-01-23T06:05:26.116Z,54.96
2023-01-23T06:11:06.253Z,54.86
2023-01-23T06:16:29.079Z,54.49
2023-01-23T06:21:33.952Z,53.85
2023-01-23T06:26:38.062Z,53.32
2023-01-23T06:31:42.753Z,52.98
2023-01-23T06:36:47.726Z,53.54
2023-01-23T06:41:52.010Z,53.94
2023-01-23T06:46:59.081Z,54.20
2023-01-23T06:52:02.845Z,53.68
2023-01-23T06:57:07.044Z,53.87
2023-01-23T07:02:12.243Z,53.67
2023-01-23T07:07:21.035Z,53.61
2023-01-23T07:12:26.712Z,53.36
2023-01-23T07:17:30.889Z,53.46
2023-01-23T07:22:36.979Z,52.91
2023-01-23T07:27:41.230Z,53.24
2023-01-23T07:32:44.484Z,53.09
2023-01-23T07:37:48.325Z,53.24
2023-01-23T07:42:51.607Z,52.97
2023-01-23T07:47:55.283Z,52.97
2023-01-23T07:52:58.568Z,52.90
2023-01-23T07:58:01.899Z,52.76
2023-01-23T08:03:04.818Z,52.88
2023-01-23T08:08:13.528Z,52.59
2023-01-23T08:13:17.322Z,52.56
2023-01-23T08:18:20.619Z,52.54
2023-01-23T08:23:28.986Z,52.06
2023-01-23T08:28:33.077Z,52.01
2023-01-23T08:33:37.662Z,52.01
2023-01-23T08:38:41.406Z,51.91
2023-01-23T08:43:44.979Z,51.88
2023-01-23T08:48:48.076Z,51.67
2023-01-23T08:53:54.645Z,51.74
2023-01-23T08:59:11.372Z,51.85
2023-01-23T09:04:34.248Z,51.38
2023-01-23T09:09:37.570Z,51.38
2023-01-23T09:14:41.602Z,51.48
2023-01-23T09:19:45.450Z,51.25
2023-01-23T09:24:48.766Z,51.12
2023-01-23T09:29:52.092Z,51.11
2023-01-23T09:34:55.372Z,50.79
2023-01-23T09:39:58.684Z,50.82
2023-01-23T09:45:05.658Z,50.70
2023-01-23T09:50:19.697Z,50.57
2023-01-23T09:55:51.536Z,50.65
2023-01-23T10:00:55.201Z,50.51
2023-01-23T10:06:25.236Z,50.24
2023-01-23T10:11:40.616Z,50.15
2023-01-23T10:17:18.049Z,49.86
2023-01-23T10:22:38.111Z,49.90
2023-01-23T10:27:45.471Z,49.78
2023-01-23T10:32:57.843Z,49.71
2023-01-23T10:38:10.864Z,49.47
2023-01-23T10:43:22.271Z,49.58
2023-01-23T10:48:50.798Z,49.42
2023-01-23T10:54:11.297Z,49.34
2023-01-23T10:59:26.780Z,49.50
2023-01-23T11:04:36.263Z,49.26
2023-01-23T11:10:02.409Z,49.38
2023-01-23T11:15:24.171Z,49.18
2023-01-23T11:20:35.484Z,48.99
2023-01-23T11:25:44.392Z,48.90
2023-01-23T11:30:58.342Z,48.95
2023-01-23T11:36:20.249Z,49.46
2023-01-23T11:41:31.605Z,50.11
2023-01-23T11:46:57.678Z,50.75
2023-01-23T11:52:35.237Z,51.03
2023-01-23T11:58:13.409Z,51.44
2023-01-23T12:03:51.835Z,51.87
2023-01-23T12:09:07.015Z,52.31
2023-01-23T12:14:42.190Z,52.59
2023-01-23T12:19:56.839Z,53.20
2023-01-23T12:25:37.993Z,53.41
2023-01-23T12:30:43.994Z,53.97
2023-01-23T12:36:01.493Z,54.76
2023-01-23T12:41:25.189Z,55.16
2023-01-23T12:46:46.318Z,55.91
2023-01-23T12:52:25.955Z,56.51
2023-01-23T12:57:45.878Z,57.24
2023-01-23T13:03:37.314Z,57.62
2023-01-23T13:09:17.493Z,58.14
2023-01-23T13:14:43.410Z,59.19
2023-01-23T13:20:26.631Z,59.41
2023-01-23T13:25:50.512Z,60.53
2023-01-23T13:31:05.164Z,60.98
2023-01-23T13:36:23.865Z,61.42
2023-01-23T13:41:29.511Z,61.44
2023-01-23T14:24:27.988Z,62.72
2023-01-23T14:29:31.087Z,62.94
2023-01-23T14:34:39.639Z,62.97
2023-01-23T14:39:53.066Z,63.27
2023-01-23T14:45:00.918Z,63.23
2023-01-23T14:50:36.118Z,63.55
2023-01-23T14:55:42.804Z,63.29
2023-01-23T15:00:46.714Z,63.88
2023-01-23T15:05:57.729Z,64.00
2023-01-23T15:11:02.717Z,63.97
2023-01-23T15:16:18.345Z,64.57
2023-01-23T15:21:33.646Z,65.06
2023-01-23T15:26:38.589Z,65.15
2023-01-23T15:31:47.212Z,65.63
2023-01-23T15:36:57.916Z,65.51
2023-01-23T15:42:26.159Z,66.11
2023-01-23T15:47:31.768Z,66.65
2023-01-23T15:52:52.568Z,66.60
2023-01-23T15:57:56.625Z,67.29
2023-01-23T16:03:00.210Z,67.57
2023-01-23T16:08:04.454Z,67.67
2023-01-23T16:13:13.875Z,67.92
2023-01-23T16:18:17.094Z,67.79
2023-01-23T16:23:22.219Z,66.94
2023-01-23T16:28:25.499Z,67.82
2023-01-23T16:33:30.145Z,67.97
2023-01-23T16:38:33.544Z,68.10
2023-01-23T16:43:49.537Z,68.25
2023-01-23T16:49:13.260Z,68.54
2023-01-23T16:54:19.492Z,68.50
2023-01-23T16:59:38.744Z,68.10
2023-01-23T17:04:42.151Z,67.82
2023-01-23T17:09:46.314Z,67.93
2023-01-23T17:14:50.484Z,67.66
2023-01-23T17:19:54.080Z,67.49
2023-01-23T17:24:57.495Z,67.18
2023-01-23T17:30:01.399Z,66.62
2023-01-23T17:35:09.516Z,66.46
2023-01-23T17:40:16.902Z,65.69
2023-01-23T17:45:23.592Z,65.26
2023-01-23T17:50:27.599Z,65.30
2023-01-23T17:55:31.852Z,64.90
2023-01-23T18:00:35.852Z,64.57
2023-01-23T18:05:39.933Z,64.49
2023-01-23T18:10:48.094Z,63.81
2023-01-23T18:16:16.244Z,63.86
2023-01-23T18:21:20.936Z,63.43
2023-01-23T18:26:45.073Z,63.08
2023-01-23T18:32:08.221Z,63.00
2023-01-23T18:37:42.624Z,62.46
2023-01-23T18:42:54.990Z,62.23
2023-01-23T18:47:59.374Z,61.73
2023-01-23T18:53:40.635Z,61.62
2023-01-23T18:59:33.746Z,60.71
2023-01-23T19:05:14.587Z,60.48
2023-01-23T19:10:46.743Z,59.64
2023-01-23T19:16:16.901Z,59.33
2023-01-23T19:21:24.271Z,58.54
2023-01-23T19:26:47.806Z,58.30
2023-01-23T19:32:10.716Z,57.68
2023-01-23T19:37:14.281Z,57.04
2023-01-23T19:42:17.670Z,57.27
2023-01-23T19:47:20.908Z,56.68
2023-01-23T19:52:24.155Z,57.21
2023-01-23T19:57:29.675Z,56.73
2023-01-23T20:02:33.561Z,56.20
2023-01-23T20:07:37.056Z,55.74
2023-01-23T20:12:46.923Z,56.49
2023-01-23T20:17:50.251Z,55.36
2023-01-23T20:22:53.770Z,55.52
2023-01-23T20:28:09.673Z,55.11
2023-01-23T20:33:45.668Z,54.75
2023-01-23T20:39:08.677Z,54.57
2023-01-23T20:44:12.440Z,54.30
2023-01-23T20:49:15.804Z,54.23
2023-01-23T20:54:19.003Z,54.71
2023-01-23T20:59:21.777Z,54.75
2023-01-23T21:04:27.856Z,54.21
2023-01-23T21:09:31.237Z,53.89
2023-01-23T21:14:34.164Z,54.64
2023-01-23T21:19:38.680Z,53.49
2023-01-23T21:24:42.051Z,53.21
2023-01-23T21:29:45.597Z,52.46
2023-01-23T21:34:48.931Z,52.65
2023-01-23T21:39:52.275Z,52.25
2023-01-23T21:44:55.498Z,51.92
2023-01-23T21:49:58.873Z,51.79
2023-01-23T21:55:02.399Z,51.49
2023-01-23T22:00:06.809Z,51.46
2023-01-23T22:05:15.724Z,51.27
2023-01-23T22:10:18.966Z,51.03
2023-01-23T22:15:22.594Z,50.86
2023-01-23T22:20:26.370Z,50.73
2023-01-23T22:25:29.604Z,50.27
2023-01-23T22:30:32.526Z,50.98
2023-01-23T22:35:40.217Z,50.30
2023-01-23T22:40:43.792Z,50.51
2023-01-23T22:45:46.644Z,50.91
2023-01-23T22:50:58.360Z,50.59
2023-01-23T22:56:16.854Z,50.45
2023-01-23T23:01:20.692Z,50.33
2023-01-23T23:06:24.709Z,50.25
2023-01-23T23:11:29.077Z,49.90
2023-01-23T23:16:40.735Z,49.83
2023-01-23T23:21:56.837Z,49.84
2023-01-23T23:26:59.820Z,50.80
2023-01-23T23:32:03.231Z,50.09
2023-01-23T23:37:06.431Z,49.98
2023-01-23T23:42:17.962Z,50.59
2023-01-23T23:47:33.061Z,50.34
2023-01-23T23:52:36.936Z,50.59
2023-01-23T23:57:40.514Z,50.37
